OAL277 LGTS-LIML
Flight info
| Callsign | OAL277 |
|---|---|
| Flight time | 1h 56m |
| Altitude | 38000 |
| Route | FSK UL608 DISOR DCT NEGOT DCT MAVAR DCT LABIN DCT ADOSA/N0369F180 L615 OSKOR |
| Aircraft | A320/M-SDE3FGHIRWY/LB1 |
Departure
| Time | 2026-04-28 19:28 |
|---|---|
| Airport | Thessaloniki Macedonia International Airport (LGTS) |
Arrival
| Time | 2026-04-28 21:24 |
|---|---|
| Airport | Milano Linate Airport (LIML) |
| Time | Latitude | Longitude | Altitude | Speed | Heading |
|---|---|---|---|---|---|
| 2026-04-28 18:51 | 40.52104 | 22.98399 | 26 ft | 0 kts | 14° |
| 2026-04-28 19:20 | 40.52103 | 22.98399 | -2 ft | 1 kts | 14° |
| 2026-04-28 19:20 | 40.52080 | 22.98390 | 30 ft | 4 kts | 25° |
| 2026-04-28 19:20 | 40.52059 | 22.98371 | 31 ft | 4 kts | 62° |
| 2026-04-28 19:20 | 40.52055 | 22.98351 | 30 ft | 0 kts | 104° |
| 2026-04-28 19:24 | 40.52043 | 22.98416 | 25 ft | 12 kts | 100° |
| 2026-04-28 19:24 | 40.52018 | 22.98537 | 27 ft | 15 kts | 106° |
| 2026-04-28 19:25 | 40.51993 | 22.98661 | 25 ft | 10 kts | 105° |
| 2026-04-28 19:25 | 40.51941 | 22.98678 | 25 ft | 9 kts | 194° |
| 2026-04-28 19:25 | 40.51881 | 22.98657 | 25 ft | 8 kts | 188° |
| 2026-04-28 19:25 | 40.51832 | 22.98695 | 28 ft | 8 kts | 149° |
| 2026-04-28 19:26 | 40.51777 | 22.98688 | 25 ft | 8 kts | 192° |
| 2026-04-28 19:26 | 40.51717 | 22.98673 | 26 ft | 9 kts | 191° |
| 2026-04-28 19:26 | 40.51683 | 22.98639 | 28 ft | 5 kts | 261° |
| 2026-04-28 19:26 | 40.51692 | 22.98593 | 29 ft | 5 kts | 285° |
| 2026-04-28 19:27 | 40.51703 | 22.98540 | 25 ft | 10 kts | 285° |
| 2026-04-28 19:27 | 40.51774 | 22.98148 | 25 ft | 82 kts | 283° |
| 2026-04-28 19:27 | 40.51957 | 22.97149 | 24 ft | 141 kts | 283° |
| 2026-04-28 19:27 | 40.52238 | 22.95668 | 115 ft | 181 kts | 284° |
| 2026-04-28 19:28 | 40.52558 | 22.94103 | 905 ft | 173 kts | 283° |
| 2026-04-28 19:28 | 40.52867 | 22.92588 | 1649 ft | 174 kts | 282° |
| 2026-04-28 19:28 | 40.53199 | 22.90976 | 2050 ft | 192 kts | 283° |
| 2026-04-28 19:28 | 40.53599 | 22.89218 | 2494 ft | 210 kts | 285° |
| 2026-04-28 19:29 | 40.54058 | 22.87294 | 2845 ft | 234 kts | 286° |
| 2026-04-28 19:29 | 40.54397 | 22.85898 | 3145 ft | 249 kts | 286° |
| 2026-04-28 19:29 | 40.55070 | 22.82866 | 4156 ft | 263 kts | 285° |
| 2026-04-28 19:29 | 40.55628 | 22.80568 | 5126 ft | 265 kts | 296° |
| 2026-04-28 19:30 | 40.56667 | 22.78556 | 6058 ft | 268 kts | 306° |
| 2026-04-28 19:30 | 40.57734 | 22.76542 | 6987 ft | 270 kts | 304° |
| 2026-04-28 19:30 | 40.58774 | 22.74469 | 7868 ft | 273 kts | 303° |
| 2026-04-28 19:30 | 40.59809 | 22.72367 | 8752 ft | 275 kts | 304° |
| 2026-04-28 19:31 | 40.60856 | 22.70240 | 9660 ft | 278 kts | 304° |
| 2026-04-28 19:31 | 40.61917 | 22.68101 | 10425 ft | 285 kts | 304° |
| 2026-04-28 19:31 | 40.63055 | 22.65830 | 10687 ft | 309 kts | 304° |
| 2026-04-28 19:31 | 40.64284 | 22.63392 | 11043 ft | 327 kts | 304° |
| 2026-04-28 19:32 | 40.65555 | 22.60876 | 11715 ft | 333 kts | 304° |
| 2026-04-28 19:32 | 40.66849 | 22.58313 | 12466 ft | 337 kts | 304° |
| 2026-04-28 19:32 | 40.68155 | 22.55722 | 13212 ft | 342 kts | 304° |
| 2026-04-28 19:32 | 40.69475 | 22.53094 | 13933 ft | 346 kts | 304° |
| 2026-04-28 19:33 | 40.70812 | 22.50436 | 14585 ft | 350 kts | 304° |
| 2026-04-28 19:33 | 40.72160 | 22.47751 | 15239 ft | 353 kts | 304° |
| 2026-04-28 19:33 | 40.73521 | 22.45039 | 15877 ft | 356 kts | 303° |
| 2026-04-28 19:33 | 40.74894 | 22.42308 | 16553 ft | 359 kts | 303° |
| 2026-04-28 19:34 | 40.76281 | 22.39551 | 17212 ft | 362 kts | 303° |
| 2026-04-28 19:34 | 40.77695 | 22.36733 | 17868 ft | 365 kts | 303° |
| 2026-04-28 19:34 | 40.79100 | 22.33923 | 18494 ft | 368 kts | 303° |
| 2026-04-28 19:34 | 40.80519 | 22.31083 | 19050 ft | 371 kts | 303° |
| 2026-04-28 19:35 | 40.81942 | 22.28231 | 19628 ft | 374 kts | 303° |
| 2026-04-28 19:35 | 40.83380 | 22.25353 | 20209 ft | 377 kts | 303° |
| 2026-04-28 19:35 | 40.84827 | 22.22452 | 20767 ft | 379 kts | 303° |
| 2026-04-28 19:35 | 40.86284 | 22.19532 | 21349 ft | 382 kts | 303° |
| 2026-04-28 19:36 | 40.87745 | 22.16594 | 21915 ft | 385 kts | 303° |
| 2026-04-28 19:36 | 40.89218 | 22.13626 | 22459 ft | 387 kts | 303° |
| 2026-04-28 19:36 | 40.90702 | 22.10634 | 22995 ft | 390 kts | 303° |
| 2026-04-28 19:36 | 40.92194 | 22.07622 | 23520 ft | 393 kts | 303° |
| 2026-04-28 19:37 | 40.93695 | 22.04594 | 23974 ft | 395 kts | 303° |
| 2026-04-28 19:37 | 40.94205 | 22.03566 | 24121 ft | 396 kts | 303° |
| 2026-04-28 19:37 | 40.96724 | 21.98478 | 24828 ft | 399 kts | 303° |
| 2026-04-28 19:37 | 40.98252 | 21.95395 | 25238 ft | 401 kts | 303° |
| 2026-04-28 19:38 | 40.99780 | 21.92307 | 25631 ft | 403 kts | 303° |
| 2026-04-28 19:38 | 41.01319 | 21.89189 | 26018 ft | 405 kts | 303° |
| 2026-04-28 19:38 | 41.02860 | 21.86061 | 26421 ft | 407 kts | 303° |
| 2026-04-28 19:38 | 41.04408 | 21.82919 | 26816 ft | 408 kts | 303° |
| 2026-04-28 19:39 | 41.05965 | 21.79757 | 27203 ft | 410 kts | 303° |
| 2026-04-28 19:39 | 41.07526 | 21.76583 | 27582 ft | 412 kts | 303° |
| 2026-04-28 19:39 | 41.09095 | 21.73388 | 27949 ft | 414 kts | 302° |
| 2026-04-28 19:39 | 41.10664 | 21.70180 | 28305 ft | 416 kts | 302° |
| 2026-04-28 19:40 | 41.12240 | 21.66956 | 28669 ft | 418 kts | 302° |
| 2026-04-28 19:40 | 41.13829 | 21.63718 | 28996 ft | 420 kts | 302° |
| 2026-04-28 19:40 | 41.14908 | 21.61520 | 29215 ft | 421 kts | 302° |
| 2026-04-28 19:40 | 41.16508 | 21.58258 | 29519 ft | 423 kts | 302° |
| 2026-04-28 19:41 | 41.18109 | 21.54978 | 29843 ft | 424 kts | 302° |
| 2026-04-28 19:41 | 41.19715 | 21.51677 | 30148 ft | 426 kts | 302° |
| 2026-04-28 19:41 | 41.21324 | 21.48368 | 30398 ft | 427 kts | 302° |
| 2026-04-28 19:41 | 41.22938 | 21.45047 | 30644 ft | 429 kts | 302° |
| 2026-04-28 19:42 | 41.24555 | 21.41715 | 30881 ft | 429 kts | 302° |
| 2026-04-28 19:42 | 41.26169 | 21.38387 | 31196 ft | 428 kts | 302° |
| 2026-04-28 19:42 | 41.27780 | 21.35062 | 31538 ft | 426 kts | 302° |
| 2026-04-28 19:42 | 41.29384 | 21.31758 | 31858 ft | 425 kts | 302° |
| 2026-04-28 19:43 | 41.30982 | 21.28458 | 32212 ft | 423 kts | 302° |
| 2026-04-28 19:43 | 41.32575 | 21.25162 | 32545 ft | 422 kts | 302° |
| 2026-04-28 19:43 | 41.34154 | 21.21882 | 32891 ft | 421 kts | 302° |
| 2026-04-28 19:43 | 41.35733 | 21.18598 | 33219 ft | 420 kts | 302° |
| 2026-04-28 19:44 | 41.37302 | 21.15333 | 33546 ft | 419 kts | 302° |
| 2026-04-28 19:44 | 41.38869 | 21.12078 | 33891 ft | 417 kts | 302° |
| 2026-04-28 19:44 | 41.40434 | 21.08826 | 34206 ft | 416 kts | 302° |
| 2026-04-28 19:44 | 41.41996 | 21.05580 | 34494 ft | 415 kts | 302° |
| 2026-04-28 19:45 | 41.43548 | 21.02343 | 34776 ft | 414 kts | 302° |
| 2026-04-28 19:45 | 41.45096 | 20.99110 | 35038 ft | 414 kts | 302° |
| 2026-04-28 19:45 | 41.46641 | 20.95882 | 35295 ft | 413 kts | 302° |
| 2026-04-28 19:45 | 41.48184 | 20.92648 | 35552 ft | 412 kts | 302° |
| 2026-04-28 19:46 | 41.49743 | 20.89380 | 35792 ft | 412 kts | 302° |
| 2026-04-28 19:46 | 41.51261 | 20.86201 | 36024 ft | 411 kts | 302° |
| 2026-04-28 19:46 | 41.52815 | 20.82946 | 36265 ft | 410 kts | 302° |
| 2026-04-28 19:46 | 41.54348 | 20.79733 | 36478 ft | 410 kts | 302° |
| 2026-04-28 19:47 | 41.55873 | 20.76526 | 36708 ft | 410 kts | 301° |
| 2026-04-28 19:47 | 41.57394 | 20.73312 | 36915 ft | 409 kts | 301° |
| 2026-04-28 19:47 | 41.58909 | 20.70110 | 37111 ft | 409 kts | 301° |
| 2026-04-28 19:47 | 41.60440 | 20.66884 | 37300 ft | 408 kts | 302° |
| 2026-04-28 19:48 | 41.61961 | 20.63685 | 37480 ft | 408 kts | 301° |
| 2026-04-28 19:48 | 41.63473 | 20.60493 | 37663 ft | 408 kts | 301° |
| 2026-04-28 19:48 | 41.64990 | 20.57279 | 37830 ft | 407 kts | 301° |
| 2026-04-28 19:48 | 41.66499 | 20.54087 | 37997 ft | 406 kts | 301° |
| 2026-04-28 19:49 | 41.68023 | 20.50900 | 38103 ft | 407 kts | 302° |
| 2026-04-28 19:49 | 41.69585 | 20.47732 | 38106 ft | 407 kts | 303° |
| 2026-04-28 19:49 | 41.72772 | 20.41466 | 38112 ft | 407 kts | 303° |
| 2026-04-28 19:50 | 41.77543 | 20.32050 | 38105 ft | 407 kts | 303° |
| 2026-04-28 19:51 | 41.80693 | 20.25753 | 38110 ft | 407 kts | 303° |
| 2026-04-28 19:51 | 41.83840 | 20.19438 | 38107 ft | 407 kts | 303° |
| 2026-04-28 19:52 | 41.87000 | 20.13081 | 38106 ft | 407 kts | 303° |
| 2026-04-28 19:52 | 41.90124 | 20.06794 | 38098 ft | 407 kts | 303° |
| 2026-04-28 19:53 | 41.93283 | 20.00417 | 38098 ft | 407 kts | 303° |
| 2026-04-28 19:53 | 41.96417 | 19.94081 | 38093 ft | 407 kts | 303° |
| 2026-04-28 19:54 | 41.99550 | 19.87732 | 38098 ft | 408 kts | 303° |
| 2026-04-28 19:54 | 42.02679 | 19.81374 | 38082 ft | 408 kts | 303° |
| 2026-04-28 19:55 | 42.05812 | 19.75012 | 38078 ft | 408 kts | 302° |
| 2026-04-28 19:55 | 42.08940 | 19.68652 | 38082 ft | 408 kts | 302° |
| 2026-04-28 19:56 | 42.12060 | 19.62279 | 38076 ft | 407 kts | 302° |
| 2026-04-28 19:56 | 42.15179 | 19.55900 | 38076 ft | 408 kts | 302° |
| 2026-04-28 19:57 | 42.18292 | 19.49513 | 38078 ft | 408 kts | 302° |
| 2026-04-28 19:57 | 42.21404 | 19.43123 | 38086 ft | 408 kts | 302° |
| 2026-04-28 19:58 | 42.24513 | 19.36728 | 38094 ft | 408 kts | 302° |
| 2026-04-28 19:58 | 42.27636 | 19.30276 | 38102 ft | 407 kts | 302° |
| 2026-04-28 19:59 | 42.30710 | 19.23913 | 38100 ft | 407 kts | 302° |
| 2026-04-28 19:59 | 42.33823 | 19.17472 | 38102 ft | 407 kts | 302° |
| 2026-04-28 20:00 | 42.36913 | 19.11065 | 38101 ft | 407 kts | 302° |
| 2026-04-28 20:00 | 42.39999 | 19.04656 | 38095 ft | 406 kts | 302° |
| 2026-04-28 20:01 | 42.43073 | 18.98236 | 38088 ft | 406 kts | 302° |
| 2026-04-28 20:01 | 42.46139 | 18.91808 | 38092 ft | 406 kts | 302° |
| 2026-04-28 20:02 | 42.49203 | 18.85376 | 38097 ft | 406 kts | 302° |
| 2026-04-28 20:02 | 42.52265 | 18.78946 | 38098 ft | 406 kts | 302° |
| 2026-04-28 20:03 | 42.55324 | 18.72514 | 38097 ft | 406 kts | 302° |
| 2026-04-28 20:03 | 42.58379 | 18.66094 | 38094 ft | 406 kts | 302° |
| 2026-04-28 20:04 | 42.61438 | 18.59645 | 38095 ft | 406 kts | 301° |
| 2026-04-28 20:04 | 42.64480 | 18.53189 | 38090 ft | 405 kts | 301° |
| 2026-04-28 20:05 | 42.67519 | 18.46741 | 38089 ft | 405 kts | 301° |
| 2026-04-28 20:05 | 42.70574 | 18.40234 | 38095 ft | 405 kts | 301° |
| 2026-04-28 20:06 | 42.73600 | 18.33776 | 38093 ft | 405 kts | 301° |
| 2026-04-28 20:06 | 42.76627 | 18.27311 | 38087 ft | 405 kts | 301° |
| 2026-04-28 20:07 | 42.79660 | 18.20836 | 38091 ft | 405 kts | 301° |
| 2026-04-28 20:07 | 42.82678 | 18.14353 | 38090 ft | 405 kts | 301° |
| 2026-04-28 20:08 | 42.85694 | 18.07866 | 38084 ft | 405 kts | 301° |
| 2026-04-28 20:08 | 42.88707 | 18.01383 | 38084 ft | 405 kts | 301° |
| 2026-04-28 20:09 | 42.91739 | 17.94850 | 38074 ft | 405 kts | 301° |
| 2026-04-28 20:09 | 42.94743 | 17.88342 | 38076 ft | 405 kts | 301° |
| 2026-04-28 20:10 | 42.97736 | 17.81822 | 38071 ft | 405 kts | 301° |
| 2026-04-28 20:10 | 43.00734 | 17.75308 | 38064 ft | 405 kts | 301° |
| 2026-04-28 20:11 | 43.03731 | 17.68789 | 38067 ft | 405 kts | 301° |
| 2026-04-28 20:11 | 43.06223 | 17.63355 | 38071 ft | 406 kts | 301° |
| 2026-04-28 20:12 | 43.09215 | 17.56811 | 38072 ft | 406 kts | 301° |
| 2026-04-28 20:12 | 43.12205 | 17.50264 | 38077 ft | 406 kts | 301° |
| 2026-04-28 20:13 | 43.15186 | 17.43705 | 38081 ft | 406 kts | 300° |
| 2026-04-28 20:13 | 43.18167 | 17.37136 | 38086 ft | 406 kts | 301° |
| 2026-04-28 20:14 | 43.21148 | 17.30561 | 38088 ft | 406 kts | 301° |
| 2026-04-28 20:14 | 43.24144 | 17.23934 | 38095 ft | 406 kts | 301° |
| 2026-04-28 20:15 | 43.27113 | 17.17355 | 38095 ft | 406 kts | 301° |
| 2026-04-28 20:15 | 43.30084 | 17.10759 | 38103 ft | 406 kts | 300° |
| 2026-04-28 20:16 | 43.33043 | 17.04155 | 38103 ft | 406 kts | 300° |
| 2026-04-28 20:16 | 43.35994 | 16.97545 | 38100 ft | 406 kts | 300° |
| 2026-04-28 20:17 | 43.38942 | 16.90935 | 38102 ft | 405 kts | 300° |
| 2026-04-28 20:17 | 43.41896 | 16.84330 | 38098 ft | 405 kts | 300° |
| 2026-04-28 20:18 | 43.44840 | 16.77727 | 38093 ft | 405 kts | 300° |
| 2026-04-28 20:18 | 43.47782 | 16.71117 | 38091 ft | 405 kts | 300° |
| 2026-04-28 20:19 | 43.50728 | 16.64457 | 38091 ft | 404 kts | 300° |
| 2026-04-28 20:19 | 43.53631 | 16.57876 | 38091 ft | 404 kts | 300° |
| 2026-04-28 20:20 | 43.56572 | 16.51209 | 38089 ft | 404 kts | 300° |
| 2026-04-28 20:20 | 43.59491 | 16.44582 | 38092 ft | 404 kts | 300° |
| 2026-04-28 20:21 | 43.62410 | 16.37951 | 38093 ft | 404 kts | 300° |
| 2026-04-28 20:21 | 43.65316 | 16.31305 | 38091 ft | 404 kts | 300° |
| 2026-04-28 20:22 | 43.68221 | 16.24647 | 38091 ft | 404 kts | 300° |
| 2026-04-28 20:22 | 43.71144 | 16.17946 | 38088 ft | 405 kts | 300° |
| 2026-04-28 20:23 | 43.74046 | 16.11271 | 38087 ft | 405 kts | 300° |
| 2026-04-28 20:23 | 43.76941 | 16.04588 | 38085 ft | 405 kts | 300° |
| 2026-04-28 20:24 | 43.79837 | 15.97904 | 38083 ft | 405 kts | 300° |
| 2026-04-28 20:24 | 43.82730 | 15.91197 | 38084 ft | 405 kts | 300° |
| 2026-04-28 20:25 | 43.85612 | 15.84497 | 38084 ft | 405 kts | 300° |
| 2026-04-28 20:25 | 43.88522 | 15.77738 | 38092 ft | 405 kts | 300° |
| 2026-04-28 20:26 | 43.91401 | 15.71022 | 38094 ft | 405 kts | 300° |
| 2026-04-28 20:26 | 43.94281 | 15.64296 | 38095 ft | 405 kts | 300° |
| 2026-04-28 20:27 | 43.97157 | 15.57557 | 38090 ft | 406 kts | 300° |
| 2026-04-28 20:27 | 44.00028 | 15.50822 | 38094 ft | 406 kts | 300° |
| 2026-04-28 20:28 | 44.02898 | 15.44073 | 38099 ft | 406 kts | 300° |
| 2026-04-28 20:28 | 44.05782 | 15.37271 | 38098 ft | 406 kts | 300° |
| 2026-04-28 20:29 | 44.08642 | 15.30502 | 38100 ft | 406 kts | 299° |
| 2026-04-28 20:29 | 44.11496 | 15.23733 | 38102 ft | 406 kts | 299° |
| 2026-04-28 20:30 | 44.14351 | 15.16948 | 38097 ft | 406 kts | 299° |
| 2026-04-28 20:30 | 44.17195 | 15.10173 | 38097 ft | 405 kts | 299° |
| 2026-04-28 20:31 | 44.20057 | 15.03341 | 38098 ft | 405 kts | 299° |
| 2026-04-28 20:31 | 44.22891 | 14.96566 | 38093 ft | 405 kts | 299° |
| 2026-04-28 20:32 | 44.25727 | 14.89756 | 38088 ft | 405 kts | 299° |
| 2026-04-28 20:32 | 44.28552 | 14.82966 | 38090 ft | 405 kts | 299° |
| 2026-04-28 20:33 | 44.31378 | 14.76163 | 38087 ft | 405 kts | 299° |
| 2026-04-28 20:33 | 44.34191 | 14.69366 | 38086 ft | 405 kts | 299° |
| 2026-04-28 20:34 | 44.36999 | 14.62555 | 38086 ft | 404 kts | 299° |
| 2026-04-28 20:34 | 44.39825 | 14.55694 | 38087 ft | 404 kts | 298° |
| 2026-04-28 20:35 | 44.42628 | 14.48887 | 38086 ft | 404 kts | 298° |
| 2026-04-28 20:35 | 44.45423 | 14.42075 | 38084 ft | 403 kts | 298° |
| 2026-04-28 20:36 | 44.48204 | 14.35267 | 38069 ft | 403 kts | 298° |
| 2026-04-28 20:36 | 44.50984 | 14.28443 | 38074 ft | 403 kts | 298° |
| 2026-04-28 20:37 | 44.53762 | 14.21621 | 38087 ft | 403 kts | 298° |
| 2026-04-28 20:37 | 44.56539 | 14.14787 | 38087 ft | 403 kts | 298° |
| 2026-04-28 20:38 | 44.59314 | 14.07944 | 38087 ft | 404 kts | 298° |
| 2026-04-28 20:38 | 44.62102 | 14.01046 | 38084 ft | 404 kts | 298° |
| 2026-04-28 20:39 | 44.64863 | 13.94194 | 38094 ft | 404 kts | 298° |
| 2026-04-28 20:39 | 44.67625 | 13.87324 | 38090 ft | 404 kts | 298° |
| 2026-04-28 20:40 | 44.69915 | 13.81604 | 38093 ft | 404 kts | 298° |
| 2026-04-28 20:40 | 44.72679 | 13.74673 | 38089 ft | 404 kts | 298° |
| 2026-04-28 20:41 | 44.75436 | 13.67786 | 38089 ft | 404 kts | 298° |
| 2026-04-28 20:41 | 44.78192 | 13.60895 | 38090 ft | 404 kts | 298° |
| 2026-04-28 20:42 | 44.80937 | 13.53986 | 38084 ft | 404 kts | 298° |
| 2026-04-28 20:42 | 44.83670 | 13.47070 | 38081 ft | 404 kts | 298° |
| 2026-04-28 20:43 | 44.86403 | 13.40144 | 38083 ft | 404 kts | 298° |
| 2026-04-28 20:43 | 44.89136 | 13.33216 | 38078 ft | 404 kts | 298° |
| 2026-04-28 20:44 | 44.91864 | 13.26287 | 38066 ft | 404 kts | 298° |
| 2026-04-28 20:44 | 44.94589 | 13.19343 | 38082 ft | 404 kts | 297° |
| 2026-04-28 20:45 | 44.97303 | 13.12389 | 38080 ft | 404 kts | 297° |
| 2026-04-28 20:45 | 44.99935 | 13.05374 | 38075 ft | 404 kts | 295° |
| 2026-04-28 20:46 | 45.02322 | 12.98132 | 38076 ft | 404 kts | 293° |
| 2026-04-28 20:46 | 45.04637 | 12.90894 | 38073 ft | 404 kts | 294° |
| 2026-04-28 20:47 | 45.06985 | 12.83669 | 38076 ft | 404 kts | 294° |
| 2026-04-28 20:47 | 45.09355 | 12.76461 | 38082 ft | 404 kts | 294° |
| 2026-04-28 20:48 | 45.11725 | 12.69231 | 38070 ft | 405 kts | 294° |
| 2026-04-28 20:48 | 45.14091 | 12.62001 | 38076 ft | 405 kts | 294° |
| 2026-04-28 20:49 | 45.16453 | 12.54755 | 38075 ft | 405 kts | 294° |
| 2026-04-28 20:49 | 45.18806 | 12.47503 | 38064 ft | 405 kts | 294° |
| 2026-04-28 20:50 | 45.21157 | 12.40251 | 38073 ft | 405 kts | 294° |
| 2026-04-28 20:50 | 45.23497 | 12.32987 | 38082 ft | 405 kts | 293° |
| 2026-04-28 20:51 | 45.25830 | 12.25708 | 38079 ft | 405 kts | 293° |
| 2026-04-28 20:51 | 45.28165 | 12.18430 | 38088 ft | 405 kts | 293° |
| 2026-04-28 20:52 | 45.30497 | 12.11149 | 38081 ft | 405 kts | 293° |
| 2026-04-28 20:52 | 45.32829 | 12.03858 | 38087 ft | 405 kts | 293° |
| 2026-04-28 20:53 | 45.36323 | 11.92861 | 38072 ft | 405 kts | 293° |
| 2026-04-28 20:53 | 45.38619 | 11.85608 | 38083 ft | 405 kts | 293° |
| 2026-04-28 20:54 | 45.40944 | 11.78257 | 38074 ft | 405 kts | 293° |
| 2026-04-28 20:54 | 45.43248 | 11.70954 | 38064 ft | 404 kts | 293° |
| 2026-04-28 20:55 | 45.45544 | 11.63648 | 38066 ft | 404 kts | 293° |
| 2026-04-28 20:55 | 45.47836 | 11.56327 | 38067 ft | 405 kts | 293° |
| 2026-04-28 20:56 | 45.50123 | 11.48991 | 38058 ft | 405 kts | 293° |
| 2026-04-28 20:56 | 45.52408 | 11.41661 | 38065 ft | 405 kts | 293° |
| 2026-04-28 20:57 | 45.54692 | 11.34320 | 38057 ft | 405 kts | 292° |
| 2026-04-28 20:57 | 45.56967 | 11.26973 | 38068 ft | 405 kts | 292° |
| 2026-04-28 20:58 | 45.59235 | 11.19613 | 38063 ft | 405 kts | 292° |
| 2026-04-28 20:58 | 45.61496 | 11.12246 | 38064 ft | 405 kts | 292° |
| 2026-04-28 20:59 | 45.63685 | 11.04836 | 38056 ft | 404 kts | 287° |
| 2026-04-28 20:59 | 45.64514 | 10.96932 | 38057 ft | 404 kts | 271° |
| 2026-04-28 21:00 | 45.64564 | 10.88846 | 38058 ft | 404 kts | 271° |
| 2026-04-28 21:00 | 45.64611 | 10.80817 | 38053 ft | 404 kts | 271° |
| 2026-04-28 21:01 | 45.64677 | 10.72786 | 38051 ft | 405 kts | 271° |
| 2026-04-28 21:01 | 45.64736 | 10.64754 | 38045 ft | 404 kts | 271° |
| 2026-04-28 21:02 | 45.64785 | 10.56711 | 38049 ft | 405 kts | 271° |
| 2026-04-28 21:02 | 45.64821 | 10.48665 | 38032 ft | 405 kts | 271° |
| 2026-04-28 21:03 | 45.64832 | 10.44621 | 37227 ft | 409 kts | 271° |
| 2026-04-28 21:03 | 45.64842 | 10.40561 | 36454 ft | 409 kts | 271° |
| 2026-04-28 21:03 | 45.64853 | 10.36493 | 35677 ft | 409 kts | 271° |
| 2026-04-28 21:03 | 45.64866 | 10.32415 | 34861 ft | 411 kts | 271° |
| 2026-04-28 21:04 | 45.64884 | 10.28321 | 33963 ft | 413 kts | 271° |
| 2026-04-28 21:04 | 45.64899 | 10.24200 | 32976 ft | 415 kts | 271° |
| 2026-04-28 21:04 | 45.64909 | 10.20061 | 32007 ft | 418 kts | 270° |
| 2026-04-28 21:04 | 45.64913 | 10.15950 | 31452 ft | 412 kts | 270° |
| 2026-04-28 21:05 | 45.64917 | 10.11866 | 30837 ft | 408 kts | 270° |
| 2026-04-28 21:05 | 45.64926 | 10.07826 | 30221 ft | 404 kts | 270° |
| 2026-04-28 21:05 | 45.64943 | 10.03830 | 29551 ft | 401 kts | 270° |
| 2026-04-28 21:05 | 45.64959 | 10.00037 | 28988 ft | 396 kts | 270° |
| 2026-04-28 21:06 | 45.64973 | 9.96123 | 28396 ft | 392 kts | 270° |
| 2026-04-28 21:06 | 45.64982 | 9.92252 | 27806 ft | 388 kts | 270° |
| 2026-04-28 21:06 | 45.64990 | 9.88408 | 27239 ft | 385 kts | 270° |
| 2026-04-28 21:06 | 45.65000 | 9.84629 | 26995 ft | 374 kts | 269° |
| 2026-04-28 21:07 | 45.64757 | 9.81011 | 26861 ft | 360 kts | 257° |
| 2026-04-28 21:07 | 45.63910 | 9.77700 | 26607 ft | 353 kts | 243° |
| 2026-04-28 21:07 | 45.62508 | 9.74831 | 26191 ft | 353 kts | 229° |
| 2026-04-28 21:07 | 45.60641 | 9.72539 | 25618 ft | 357 kts | 217° |
| 2026-04-28 21:08 | 45.58600 | 9.70522 | 25181 ft | 355 kts | 217° |
| 2026-04-28 21:08 | 45.56561 | 9.68509 | 24583 ft | 357 kts | 217° |
| 2026-04-28 21:08 | 45.54541 | 9.66516 | 24311 ft | 350 kts | 217° |
| 2026-04-28 21:08 | 45.52553 | 9.64552 | 23574 ft | 346 kts | 217° |
| 2026-04-28 21:09 | 45.50561 | 9.62578 | 22834 ft | 340 kts | 217° |
| 2026-04-28 21:09 | 45.48620 | 9.60652 | 22296 ft | 341 kts | 217° |
| 2026-04-28 21:09 | 45.46677 | 9.58718 | 21813 ft | 340 kts | 218° |
| 2026-04-28 21:09 | 45.44746 | 9.56801 | 21300 ft | 340 kts | 217° |
| 2026-04-28 21:10 | 45.42815 | 9.54887 | 20940 ft | 335 kts | 217° |
| 2026-04-28 21:10 | 45.40907 | 9.52998 | 20517 ft | 333 kts | 217° |
| 2026-04-28 21:10 | 45.39008 | 9.51124 | 20068 ft | 332 kts | 217° |
| 2026-04-28 21:10 | 45.37102 | 9.49243 | 19449 ft | 334 kts | 217° |
| 2026-04-28 21:11 | 45.35203 | 9.47374 | 18920 ft | 328 kts | 217° |
| 2026-04-28 21:11 | 45.33351 | 9.45559 | 18399 ft | 319 kts | 216° |
| 2026-04-28 21:11 | 45.31385 | 9.44177 | 17826 ft | 315 kts | 200° |
| 2026-04-28 21:11 | 45.29240 | 9.43616 | 17242 ft | 312 kts | 184° |
| 2026-04-28 21:12 | 45.27083 | 9.43773 | 16669 ft | 308 kts | 178° |
| 2026-04-28 21:12 | 45.24961 | 9.44009 | 16112 ft | 303 kts | 178° |
| 2026-04-28 21:12 | 45.22871 | 9.44235 | 15560 ft | 299 kts | 178° |
| 2026-04-28 21:12 | 45.21475 | 9.44384 | 15197 ft | 296 kts | 178° |
| 2026-04-28 21:13 | 45.19429 | 9.44600 | 14662 ft | 293 kts | 178° |
| 2026-04-28 21:13 | 45.17412 | 9.44813 | 14137 ft | 289 kts | 178° |
| 2026-04-28 21:13 | 45.15413 | 9.45024 | 13594 ft | 286 kts | 178° |
| 2026-04-28 21:13 | 45.13436 | 9.45232 | 13004 ft | 283 kts | 177° |
| 2026-04-28 21:14 | 45.11485 | 9.45440 | 12442 ft | 280 kts | 177° |
| 2026-04-28 21:14 | 45.09554 | 9.45646 | 11882 ft | 276 kts | 177° |
| 2026-04-28 21:14 | 45.07649 | 9.45850 | 11330 ft | 273 kts | 176° |
| 2026-04-28 21:14 | 45.05765 | 9.46049 | 10790 ft | 270 kts | 176° |
| 2026-04-28 21:15 | 45.03905 | 9.46219 | 10258 ft | 265 kts | 181° |
| 2026-04-28 21:15 | 45.02122 | 9.45716 | 9712 ft | 261 kts | 204° |
| 2026-04-28 21:15 | 45.00661 | 9.44261 | 9185 ft | 257 kts | 227° |
| 2026-04-28 21:15 | 44.99757 | 9.42141 | 8719 ft | 251 kts | 251° |
| 2026-04-28 21:16 | 44.99521 | 9.39736 | 8258 ft | 246 kts | 274° |
| 2026-04-28 21:16 | 44.99953 | 9.37438 | 7805 ft | 241 kts | 297° |
| 2026-04-28 21:16 | 45.00956 | 9.35578 | 7497 ft | 240 kts | 319° |
| 2026-04-28 21:16 | 45.02382 | 9.34376 | 7221 ft | 239 kts | 341° |
| 2026-04-28 21:17 | 45.03946 | 9.33606 | 6980 ft | 238 kts | 341° |
| 2026-04-28 21:17 | 45.05509 | 9.32832 | 6738 ft | 237 kts | 341° |
| 2026-04-28 21:17 | 45.07063 | 9.32047 | 6494 ft | 236 kts | 343° |
| 2026-04-28 21:17 | 45.08662 | 9.31567 | 6241 ft | 234 kts | 354° |
| 2026-04-28 21:18 | 45.10282 | 9.31358 | 5981 ft | 234 kts | 357° |
| 2026-04-28 21:18 | 45.11901 | 9.31195 | 5728 ft | 233 kts | 357° |
| 2026-04-28 21:18 | 45.13515 | 9.31027 | 5476 ft | 232 kts | 357° |
| 2026-04-28 21:18 | 45.15120 | 9.30857 | 5226 ft | 231 kts | 357° |
| 2026-04-28 21:19 | 45.16723 | 9.30686 | 4978 ft | 231 kts | 357° |
| 2026-04-28 21:19 | 45.18321 | 9.30515 | 4727 ft | 230 kts | 357° |
| 2026-04-28 21:19 | 45.19913 | 9.30345 | 4472 ft | 229 kts | 357° |
| 2026-04-28 21:19 | 45.21500 | 9.30175 | 4219 ft | 228 kts | 357° |
| 2026-04-28 21:20 | 45.23082 | 9.30006 | 3961 ft | 228 kts | 357° |
| 2026-04-28 21:20 | 45.24679 | 9.29835 | 3718 ft | 227 kts | 357° |
| 2026-04-28 21:20 | 45.26246 | 9.29668 | 3588 ft | 227 kts | 357° |
| 2026-04-28 21:20 | 45.27815 | 9.29500 | 3346 ft | 225 kts | 357° |
| 2026-04-28 21:21 | 45.29370 | 9.29333 | 3062 ft | 223 kts | 357° |
| 2026-04-28 21:21 | 45.30912 | 9.29168 | 2769 ft | 221 kts | 357° |
| 2026-04-28 21:21 | 45.32420 | 9.29006 | 2481 ft | 213 kts | 357° |
| 2026-04-28 21:21 | 45.33866 | 9.28850 | 2203 ft | 205 kts | 357° |
| 2026-04-28 21:22 | 45.35259 | 9.28701 | 1968 ft | 195 kts | 357° |
| 2026-04-28 21:22 | 45.36573 | 9.28559 | 1700 ft | 182 kts | 358° |
| 2026-04-28 21:22 | 45.37773 | 9.28430 | 1452 ft | 165 kts | 357° |
| 2026-04-28 21:22 | 45.38878 | 9.28311 | 1241 ft | 154 kts | 357° |
| 2026-04-28 21:23 | 45.39925 | 9.28199 | 1057 ft | 148 kts | 357° |
| 2026-04-28 21:23 | 45.40940 | 9.28091 | 868 ft | 145 kts | 356° |
| 2026-04-28 21:23 | 45.41940 | 9.27982 | 679 ft | 143 kts | 356° |
| 2026-04-28 21:23 | 45.42929 | 9.27863 | 512 ft | 142 kts | 356° |
| 2026-04-28 21:24 | 45.43912 | 9.27760 | 364 ft | 137 kts | 356° |
| 2026-04-28 21:24 | 45.44637 | 9.27701 | 363 ft | 105 kts | 356° |
| 2026-04-28 21:24 | 45.45101 | 9.27650 | 361 ft | 26 kts | 355° |
| 2026-04-28 21:24 | 45.45244 | 9.27635 | 361 ft | 18 kts | 1° |
| 2026-04-28 21:25 | 45.45349 | 9.27686 | 361 ft | 13 kts | 24° |
| 2026-04-28 21:25 | 45.45425 | 9.27745 | 364 ft | 13 kts | 39° |
| 2026-04-28 21:25 | 45.45502 | 9.27815 | 361 ft | 13 kts | 6° |
| 2026-04-28 21:25 | 45.45575 | 9.27816 | 361 ft | 10 kts | 0° |
| 2026-04-28 21:26 | 45.45643 | 9.27814 | 364 ft | 9 kts | 359° |
| 2026-04-28 21:26 | 45.45704 | 9.27816 | 361 ft | 8 kts | 1° |
| 2026-04-28 21:26 | 45.45757 | 9.27818 | 361 ft | 7 kts | 1° |
| 2026-04-28 21:26 | 45.45803 | 9.27819 | 366 ft | 6 kts | 1° |
| 2026-04-28 21:27 | 45.45850 | 9.27821 | 361 ft | 10 kts | 1° |
| 2026-04-28 21:27 | 45.45898 | 9.27842 | 365 ft | 6 kts | 51° |
| 2026-04-28 21:27 | 45.45905 | 9.27891 | 361 ft | 5 kts | 88° |
| 2026-04-28 21:27 | 45.45906 | 9.27933 | 361 ft | 4 kts | 89° |
| 2026-04-28 21:28 | 45.45906 | 9.27968 | 361 ft | 4 kts | 89° |
| 2026-04-28 21:28 | 45.45904 | 9.28026 | 361 ft | 8 kts | 92° |
| 2026-04-28 21:28 | 45.45906 | 9.28084 | 364 ft | 4 kts | 66° |
| 2026-04-28 21:28 | 45.45927 | 9.28102 | 361 ft | 4 kts | 12° |
| 2026-04-28 21:29 | 45.45952 | 9.28102 | 361 ft | 3 kts | 358° |
| 2026-04-28 21:29 | 45.45970 | 9.28102 | 362 ft | 2 kts | 0° |
| 2026-04-28 21:29 | 45.45978 | 9.28102 | 364 ft | 0 kts | 0° |